Time;durP1;ratioP1;P1;durP2;ratioP2;P2;SDS_P1;SDS_P2;PMS_P1;PMS_P2;Temp;Humidity;BMP_temperature;BMP_pressure;BME280_temperature;BME280_humidity;BME280_pressure;Samples;Min_cycle;Max_cycle;Signal;HPM_P1;HPM_P2
2023/06/20 00:02:16;;;;;;;21.02;6.32;;;;;;;15.96;45.55;99653.44;5073859;28;20035;-61
2023/06/20 00:04:41;;;;;;;23.92;6.97;;;;;;;15.92;45.59;99642.13;5074444;28;20021;-62
2023/06/20 00:07:07;;;;;;;21.33;6.45;;;;;;;15.88;45.92;99646.16;5073281;28;20133;-61
2023/06/20 00:09:32;;;;;;;17.98;6.00;;;;;;;15.71;45.96;99620.91;5074804;28;20032;-62
2023/06/20 00:11:58;;;;;;;19.00;6.00;;;;;;;15.88;45.82;99658.78;5074196;28;20024;-61
2023/06/20 00:14:24;;;;;;;26.88;6.25;;;;;;;15.80;45.75;99646.09;5074229;28;20032;-62
2023/06/20 00:16:49;;;;;;;23.27;5.70;;;;;;;15.76;45.88;99655.53;5074570;28;20060;-62
2023/06/20 00:19:15;;;;;;;18.83;6.25;;;;;;;15.76;46.25;99661.75;5074734;28;20048;-61
2023/06/20 00:21:41;;;;;;;26.48;6.60;;;;;;;15.74;46.52;99655.69;5073212;28;20041;-61
2023/06/20 00:24:10;;;;;;;16.70;5.53;;;;;;;15.72;46.55;99655.00;5074027;28;20054;-61
2023/06/20 00:26:37;;;;;;;21.10;5.63;;;;;;;15.73;46.21;99655.84;5074072;28;20035;-60
2023/06/20 00:29:03;;;;;;;18.85;5.18;;;;;;;15.73;46.34;99650.47;5072821;28;20040;-61
2023/06/20 00:31:28;;;;;;;18.15;5.53;;;;;;;15.71;46.63;99638.97;5073268;28;20044;-60
2023/06/20 00:33:54;;;;;;;18.77;5.75;;;;;;;15.72;46.35;99643.38;5073972;28;20476;-60
2023/06/20 00:36:25;;;;;;;19.20;6.20;;;;;;;15.72;46.11;99637.97;5074329;28;20402;-61
2023/06/20 00:38:52;;;;;;;23.58;5.63;;;;;;;15.68;46.22;99636.59;5073818;28;20036;-61
2023/06/20 00:41:20;;;;;;;16.65;5.30;;;;;;;15.74;46.68;99649.44;5094018;28;20115;-61
2023/06/20 00:43:49;;;;;;;15.75;5.63;;;;;;;15.69;46.36;99639.13;5092039;28;20541;-61
2023/06/20 00:46:17;;;;;;;21.23;5.75;;;;;;;15.75;46.19;99649.25;5094268;28;20027;-61
2023/06/20 00:48:43;;;;;;;15.25;5.10;;;;;;;15.80;46.35;99656.88;5087740;28;20234;-61
2023/06/20 00:51:09;;;;;;;15.43;6.10;;;;;;;15.81;45.69;99650.47;5071257;28;20063;-61
2023/06/20 00:53:35;;;;;;;16.38;5.18;;;;;;;15.89;45.53;99645.13;5072373;28;20040;-61
2023/06/20 00:56:03;;;;;;;18.88;5.80;;;;;;;15.99;45.24;99649.56;5073698;28;20028;-61
2023/06/20 00:58:28;;;;;;;16.67;5.32;;;;;;;16.06;45.42;99650.59;5076883;28;20039;-61
2023/06/20 01:00:54;;;;;;;18.10;5.88;;;;;;;16.11;45.27;99650.94;5073062;28;20032;-61
2023/06/20 01:03:20;;;;;;;17.10;5.55;;;;;;;16.08;44.76;99648.59;5076611;28;20389;-61
2023/06/20 01:06:11;;;;;;;15.13;5.53;;;;;;;16.26;44.18;99647.63;5092555;28;20055;-61
2023/06/20 01:08:48;;;;;;;13.27;5.30;;;;;;;16.03;44.87;99619.34;5081706;28;20047;-61
2023/06/20 01:11:45;;;;;;;14.48;4.97;;;;;;;16.20;44.82;99647.28;5093833;28;20439;-62
2023/06/20 01:14:29;;;;;;;14.27;5.03;;;;;;;16.23;44.68;99650.66;5092412;28;20160;-61
2023/06/20 01:17:00;;;;;;;14.40;4.97;;;;;;;16.24;44.57;99646.94;5086831;28;20101;-61
2023/06/20 01:19:28;;;;;;;11.25;5.03;;;;;;;16.27;44.21;99644.72;5072694;28;20044;-62
2023/06/20 01:22:03;;;;;;;15.38;4.93;;;;;;;16.41;44.26;99648.69;5073169;28;20115;-62
2023/06/20 01:24:58;;;;;;;14.85;5.03;;;;;;;16.58;43.83;99646.84;5073152;28;20153;-61
2023/06/20 01:27:40;;;;;;;18.27;5.60;;;;;;;16.58;43.56;99638.72;5086103;28;20028;-61
2023/06/20 01:30:39;;;;;;;21.33;6.15;;;;;;;16.78;43.53;99655.44;5093066;28;20035;-60
2023/06/20 01:33:08;;;;;;;12.15;5.82;;;;;;;16.73;43.80;99652.41;5040503;28;20059;-60
2023/06/20 01:35:36;;;;;;;17.45;6.28;;;;;;;16.78;43.84;99658.16;5093333;28;20032;-61
2023/06/20 01:38:08;;;;;;;15.63;6.20;;;;;;;16.88;43.83;99655.28;5093134;28;20040;-62
2023/06/20 01:40:36;;;;;;;20.63;6.75;;;;;;;16.75;43.42;99628.75;5093053;28;20043;-61
2023/06/20 01:43:04;;;;;;;19.20;6.30;;;;;;;16.93;43.50;99649.38;5073590;28;20044;-61
2023/06/20 01:45:35;;;;;;;19.30;6.40;;;;;;;17.06;43.11;99655.13;5071975;28;20033;-61
2023/06/20 01:48:03;;;;;;;12.48;5.30;;;;;;;17.14;43.29;99653.44;5071292;28;20085;-61
2023/06/20 01:50:30;;;;;;;16.88;5.63;;;;;;;17.17;42.95;99670.16;5073611;28;20074;-61
2023/06/20 01:52:57;;;;;;;13.55;5.70;;;;;;;17.23;42.72;99663.22;5071980;28;20035;-61
2023/06/20 01:55:24;;;;;;;12.57;5.43;;;;;;;17.28;42.55;99660.03;5073071;28;20021;-62
2023/06/20 01:57:50;;;;;;;9.63;5.07;;;;;;;17.34;42.43;99667.44;5055917;28;20047;-60
2023/06/20 02:00:17;;;;;;;12.50;5.75;;;;;;;17.38;42.40;99667.97;5087246;28;20028;-61
2023/06/20 02:02:45;;;;;;;18.75;5.95;;;;;;;17.45;42.35;99663.53;5092918;28;20138;-60
2023/06/20 02:05:12;;;;;;;11.27;5.55;;;;;;;17.33;42.26;99636.00;5092870;28;20475;-61
2023/06/20 02:07:38;;;;;;;14.57;5.68;;;;;;;17.53;42.14;99660.78;5074685;28;20031;-63
2023/06/20 02:10:05;;;;;;;11.95;5.50;;;;;;;17.58;41.97;99654.88;5092451;28;20027;-61
2023/06/20 02:12:32;;;;;;;12.68;5.28;;;;;;;17.67;41.90;99647.56;5092918;28;20032;-61
2023/06/20 02:14:58;;;;;;;15.18;5.95;;;;;;;17.76;41.73;99652.78;5090879;28;20031;-63
2023/06/20 02:17:25;;;;;;;16.42;5.68;;;;;;;17.83;41.53;99654.78;5092687;28;20047;-61
2023/06/20 02:19:51;;;;;;;11.05;5.10;;;;;;;17.89;41.50;99651.38;5091574;28;20039;-62
2023/06/20 02:22:21;;;;;;;15.25;5.20;;;;;;;17.99;41.17;99662.84;5091723;28;20032;-61
2023/06/20 02:24:48;;;;;;;12.98;5.18;;;;;;;18.03;41.01;99647.09;5090919;28;20044;-60
2023/06/20 02:27:17;;;;;;;12.18;5.57;;;;;;;18.06;40.84;99644.03;5092338;28;20028;-61
2023/06/20 02:29:45;;;;;;;17.92;5.13;;;;;;;17.92;41.03;99619.38;5092841;28;20028;-60
2023/06/20 02:32:13;;;;;;;18.13;5.70;;;;;;;18.13;40.84;99642.31;5096778;28;20028;-61
2023/06/20 02:34:43;;;;;;;18.50;5.80;;;;;;;18.27;40.36;99639.84;5096551;28;20111;-61
2023/06/20 02:37:11;;;;;;;14.13;5.05;;;;;;;18.32;39.92;99640.16;5096575;28;20085;-61
2023/06/20 02:39:36;;;;;;;10.48;5.10;;;;;;;18.39;39.85;99635.72;5096008;28;20039;-62
2023/06/20 02:42:02;;;;;;;13.55;6.43;;;;;;;18.44;39.71;99627.88;5096066;28;20040;-61
2023/06/20 02:44:28;;;;;;;13.77;5.45;;;;;;;18.61;39.47;99635.91;5096407;28;20112;-60
2023/06/20 02:47:10;;;;;;;11.77;4.95;;;;;;;18.82;39.13;99647.97;5095602;28;20469;-61
2023/06/20 02:49:49;;;;;;;14.32;4.88;;;;;;;18.97;38.09;99648.00;5056061;28;20033;-62
2023/06/20 02:52:31;;;;;;;13.55;5.00;;;;;;;19.11;37.96;99654.50;5055861;28;20036;-60
2023/06/20 02:55:04;;;;;;;11.40;4.75;;;;;;;18.77;37.58;99589.66;5055135;28;20426;-60
2023/06/20 02:57:30;;;;;;;13.25;4.57;;;;;;;18.98;37.60;99638.81;5055915;28;20028;-62
2023/06/20 03:00:09;;;;;;;12.32;4.63;;;;;;;19.07;36.97;99660.31;5056086;28;20443;-62
2023/06/20 03:02:41;;;;;;;13.82;4.65;;;;;;;19.04;37.12;99657.94;5060780;28;20427;-61
2023/06/20 03:05:10;;;;;;;15.60;4.55;;;;;;;18.99;37.45;99652.22;5075650;28;20362;-61
2023/06/20 03:07:37;;;;;;;9.20;4.60;;;;;;;19.04;37.10;99657.94;5074543;28;20359;-61
2023/06/20 03:10:06;;;;;;;13.30;4.72;;;;;;;19.12;36.59;99650.78;5074085;28;20039;-61
2023/06/20 03:12:31;;;;;;;11.60;4.82;;;;;;;19.25;36.26;99639.28;5075085;28;20089;-61
2023/06/20 03:14:57;;;;;;;12.07;5.47;;;;;;;19.39;36.22;99637.59;5075763;28;20044;-61
2023/06/20 03:17:22;;;;;;;11.68;4.65;;;;;;;19.60;36.21;99642.28;5075313;28;20098;-62
2023/06/20 03:19:49;;;;;;;10.85;5.00;;;;;;;19.74;35.77;99648.72;5074986;28;20048;-61
2023/06/20 03:22:14;;;;;;;10.52;5.45;;;;;;;19.85;35.46;99644.69;5075515;28;20119;-61
2023/06/20 03:24:40;;;;;;;11.77;4.82;;;;;;;19.99;35.82;99626.72;5074535;28;20372;-62
2023/06/20 03:27:05;;;;;;;14.95;5.53;;;;;;;20.25;34.94;99630.78;5075252;28;20032;-62
2023/06/20 03:29:32;;;;;;;8.55;4.88;;;;;;;20.83;33.60;99619.03;5075321;28;20466;-63
2023/06/20 03:31:58;;;;;;;9.15;4.75;;;;;;;21.53;32.33;99627.28;5075511;28;20039;-62
2023/06/20 03:34:24;;;;;;;11.63;4.38;;;;;;;22.26;31.20;99627.81;5075420;28;20036;-61
2023/06/20 03:36:49;;;;;;;11.23;4.85;;;;;;;22.94;30.14;99635.09;5074651;28;20032;-61
2023/06/20 03:39:15;;;;;;;10.80;4.70;;;;;;;23.34;29.11;99605.00;5087799;28;20454;-62
2023/06/20 03:41:40;;;;;;;10.23;4.63;;;;;;;24.02;28.58;99624.81;5093793;28;20123;-62
2023/06/20 03:44:06;;;;;;;14.63;4.80;;;;;;;24.50;27.71;99620.72;5094877;28;20312;-62
2023/06/20 03:46:31;;;;;;;11.18;4.95;;;;;;;25.08;26.38;99615.25;5093906;28;20194;-62
2023/06/20 03:48:57;;;;;;;13.40;4.75;;;;;;;25.32;26.20;99616.31;5089939;28;20107;-61
2023/06/20 03:51:22;;;;;;;9.25;4.93;;;;;;;25.30;26.52;99623.06;5074326;28;20381;-61
2023/06/20 03:53:48;;;;;;;15.35;4.93;;;;;;;25.17;26.54;99630.34;5074233;28;20040;-62
2023/06/20 03:56:13;;;;;;;12.88;4.78;;;;;;;24.85;27.33;99626.84;5074492;28;20041;-61
2023/06/20 03:58:39;;;;;;;13.27;4.65;;;;;;;24.54;26.91;99620.28;5074829;28;20028;-61
2023/06/20 04:01:06;;;;;;;16.00;4.85;;;;;;;24.48;27.14;99627.50;5074467;28;20150;-62
2023/06/20 04:03:32;;;;;;;9.82;4.75;;;;;;;24.48;27.12;99620.13;5073467;28;20115;-60
2023/06/20 04:06:01;;;;;;;10.98;4.13;;;;;;;24.58;26.86;99614.16;5074803;28;20288;-61
2023/06/20 04:08:30;;;;;;;11.13;4.35;;;;;;;25.05;26.01;99634.88;5075097;28;20025;-61
2023/06/20 04:10:56;;;;;;;8.13;4.10;;;;;;;25.83;25.32;99621.66;5074641;28;20025;-61
2023/06/20 04:13:22;;;;;;;10.43;4.75;;;;;;;27.20;23.36;99621.16;5075341;28;20528;-61
2023/06/20 04:15:47;;;;;;;8.60;4.53;;;;;;;28.56;21.62;99611.00;5074069;28;20048;-62
2023/06/20 04:18:13;;;;;;;7.30;3.92;;;;;;;29.73;20.19;99612.25;5074496;28;20024;-62
2023/06/20 04:20:39;;;;;;;7.75;4.28;;;;;;;30.55;19.43;99595.75;5074365;28;20378;-62
2023/06/20 04:23:04;;;;;;;15.45;4.75;;;;;;;31.33;18.60;99596.38;5073998;28;20028;-62
2023/06/20 04:25:30;;;;;;;12.57;4.07;;;;;;;31.96;18.08;99592.81;5088284;28;20028;-62
2023/06/20 04:27:56;;;;;;;12.15;3.85;;;;;;;32.65;17.46;99606.50;5090480;28;20103;-61
2023/06/20 04:30:22;;;;;;;15.30;4.25;;;;;;;33.29;16.38;99601.47;5075065;28;20028;-61
2023/06/20 04:32:48;;;;;;;8.98;3.72;;;;;;;34.14;15.85;99601.72;5075084;28;20366;-62
2023/06/20 04:35:14;;;;;;;9.95;4.05;;;;;;;34.76;15.29;99611.56;5073943;28;20448;-62
2023/06/20 04:37:40;;;;;;;11.13;3.60;;;;;;;35.49;14.42;99620.06;5073856;28;20032;-62
2023/06/20 04:40:08;;;;;;;12.63;4.03;;;;;;;35.95;14.57;99627.03;5072534;28;20029;-62
2023/06/20 04:42:34;;;;;;;9.65;3.60;;;;;;;36.54;13.69;99621.25;5073868;28;20028;-62
2023/06/20 04:44:59;;;;;;;7.97;3.97;;;;;;;37.03;13.33;99619.03;5073936;28;20123;-61
2023/06/20 04:47:25;;;;;;;10.00;3.92;;;;;;;37.53;12.93;99609.16;5074896;28;20032;-62
2023/06/20 04:49:50;;;;;;;9.05;4.40;;;;;;;38.04;12.33;99600.84;5090574;28;20032;-60
2023/06/20 04:52:16;;;;;;;10.32;3.88;;;;;;;38.65;12.06;99616.50;5085578;28;20496;-62
2023/06/20 04:54:42;;;;;;;12.85;4.07;;;;;;;39.02;11.35;99608.88;5072752;28;20044;-64
2023/06/20 04:57:08;;;;;;;12.00;3.67;;;;;;;39.45;11.27;99608.28;5073281;28;20024;-61
2023/06/20 04:59:35;;;;;;;14.90;3.85;;;;;;;39.93;11.17;99599.34;5072865;28;20401;-63
2023/06/20 05:02:05;;;;;;;11.95;3.67;;;;;;;40.21;10.68;99585.84;5073416;28;20350;-62
2023/06/20 05:04:31;;;;;;;7.30;4.10;;;;;;;40.61;10.34;99601.66;5073572;28;20091;-62
2023/06/20 05:06:56;;;;;;;4.55;3.30;;;;;;;40.99;10.00;99606.53;5072677;28;20464;-62
2023/06/20 05:09:22;;;;;;;4.90;2.97;;;;;;;41.45;9.72;99601.28;5073374;28;20425;-62
2023/06/20 05:11:47;;;;;;;8.23;3.03;;;;;;;41.69;9.20;99601.81;5072776;28;20058;-61
2023/06/20 05:14:12;;;;;;;12.88;3.30;;;;;;;41.60;9.46;99594.28;5073285;28;20058;-63
2023/06/20 05:16:38;;;;;;;6.93;3.00;;;;;;;41.98;8.84;99594.53;5072362;28;20085;-62
2023/06/20 05:19:04;;;;;;;5.97;2.90;;;;;;;42.34;8.88;99595.91;5073319;28;20052;-63
2023/06/20 05:21:29;;;;;;;6.53;2.90;;;;;;;42.50;8.62;99593.31;5072570;28;20044;-62
2023/06/20 05:23:55;;;;;;;6.22;3.30;;;;;;;42.91;8.65;99587.13;5074424;28;20361;-61
2023/06/20 05:26:20;;;;;;;7.20;2.80;;;;;;;43.42;8.44;99592.50;5093549;28;20028;-63
2023/06/20 05:28:46;;;;;;;4.97;2.95;;;;;;;43.99;7.70;99581.38;5092948;28;20039;-62
2023/06/20 05:31:11;;;;;;;9.00;2.88;;;;;;;44.70;7.65;99579.00;5093028;28;20051;-62
2023/06/20 05:33:37;;;;;;;7.75;2.72;;;;;;;45.05;7.20;99579.50;5093333;28;20032;-62
2023/06/20 05:36:04;;;;;;;3.15;2.85;;;;;;;45.27;6.93;99592.19;5093535;28;20058;-64
2023/06/20 05:38:31;;;;;;;3.45;2.40;;;;;;;45.06;6.93;99573.50;5091494;28;20047;-62
2023/06/20 05:40:58;;;;;;;4.57;2.42;;;;;;;45.34;6.67;99580.25;5092378;28;20116;-62
2023/06/20 05:43:24;;;;;;;4.93;2.53;;;;;;;45.74;6.40;99550.91;5075077;28;20047;-63
2023/06/20 05:45:49;;;;;;;6.72;2.33;;;;;;;46.12;6.55;99569.13;5093096;28;20335;-62
2023/06/20 05:48:15;;;;;;;5.63;2.40;;;;;;;46.51;6.49;99567.47;5087923;28;20028;-63
2023/06/20 05:50:41;;;;;;;5.60;2.63;;;;;;;46.97;6.41;99561.84;5072382;28;20044;-63
2023/06/20 05:53:07;;;;;;;3.42;2.53;;;;;;;47.40;6.19;99560.94;5072959;28;20508;-63
2023/06/20 05:55:33;;;;;;;3.22;2.45;;;;;;;47.82;5.41;99568.47;5073225;28;20032;-63
2023/06/20 05:57:59;;;;;;;6.63;2.70;;;;;;;47.95;5.64;99559.69;5072471;28;20162;-62
2023/06/20 06:00:25;;;;;;;7.18;2.50;;;;;;;47.96;5.59;99552.81;5072394;28;20059;-62
2023/06/20 06:02:50;;;;;;;8.23;2.92;;;;;;;48.31;4.90;99554.47;5071049;28;20039;-62
2023/06/20 06:05:16;;;;;;;4.97;2.53;;;;;;;48.51;5.41;99552.28;5076022;28;20521;-67
2023/06/20 06:07:41;;;;;;;4.30;2.60;;;;;;;47.97;4.96;99560.13;5072604;28;20028;-66
2023/06/20 06:10:08;;;;;;;2.58;2.38;;;;;;;47.23;5.60;99533.94;5072539;28;20466;-67
2023/06/20 06:12:37;;;;;;;4.85;2.53;;;;;;;45.89;6.02;99571.03;5071835;28;20125;-66
2023/06/20 06:15:04;;;;;;;5.10;2.20;;;;;;;43.17;7.71;99522.03;5071387;28;20020;-66
2023/06/20 06:17:33;;;;;;;6.35;2.17;;;;;;;41.31;8.82;99556.59;5072699;28;20166;-65
2023/06/20 06:19:58;;;;;;;5.25;2.20;;;;;;;39.79;9.60;99558.25;5088712;28;20135;-66
2023/06/20 06:22:24;;;;;;;6.22;2.00;;;;;;;39.55;9.50;99522.28;5092638;28;20047;-66
2023/06/20 06:24:51;;;;;;;4.80;2.58;;;;;;;40.32;9.71;99539.50;5091072;28;20024;-67
2023/06/20 06:27:17;;;;;;;6.25;2.35;;;;;;;40.27;9.49;99548.09;5072188;28;20028;-69
2023/06/20 06:29:43;;;;;;;4.55;2.30;;;;;;;39.32;10.04;99548.41;5072310;28;20470;-67
2023/06/20 06:32:10;;;;;;;6.30;2.50;;;;;;;37.99;10.99;99545.09;5072290;28;20043;-68
2023/06/20 06:34:36;;;;;;;5.00;2.58;;;;;;;36.32;12.39;99549.34;5072096;28;20414;-66
2023/06/20 06:37:03;;;;;;;2.90;2.35;;;;;;;34.89;13.65;99548.88;5071431;28;20102;-65
2023/06/20 06:39:29;;;;;;;5.90;2.25;;;;;;;33.71;14.50;99555.00;5072085;28;20038;-66
2023/06/20 06:41:55;;;;;;;4.03;2.38;;;;;;;32.83;15.41;99537.75;5071989;28;20028;-67
2023/06/20 06:44:20;;;;;;;5.10;2.50;;;;;;;32.62;15.67;99540.56;5072149;28;20090;-67
2023/06/20 06:46:46;;;;;;;6.32;2.55;;;;;;;33.67;15.15;99540.03;5070206;28;20036;-66
2023/06/20 06:49:11;;;;;;;5.30;2.78;;;;;;;35.00;13.70;99539.34;5072066;28;20056;-67
2023/06/20 06:51:38;;;;;;;6.75;2.67;;;;;;;35.59;12.88;99530.06;5072189;28;20126;-67
2023/06/20 06:54:04;;;;;;;7.45;2.28;;;;;;;35.64;12.84;99532.78;5070897;28;20123;-67
2023/06/20 06:56:29;;;;;;;5.47;2.08;;;;;;;35.33;13.10;99511.69;5073983;28;20125;-66
2023/06/20 06:58:57;;;;;;;4.35;2.00;;;;;;;34.96;13.06;99532.66;5071205;28;20024;-66
2023/06/20 07:01:24;;;;;;;6.18;2.00;;;;;;;34.41;14.17;99530.13;5071014;28;20110;-66
2023/06/20 07:03:49;;;;;;;5.43;2.42;;;;;;;34.25;13.76;99512.75;5071922;28;20158;-67
2023/06/20 07:06:16;;;;;;;3.95;2.30;;;;;;;34.15;13.99;99497.81;5070629;28;20115;-67
2023/06/20 07:08:42;;;;;;;4.35;2.17;;;;;;;33.84;14.22;99520.22;5071754;28;20056;-67
2023/06/20 07:11:08;;;;;;;2.22;2.00;;;;;;;35.30;13.64;99520.66;5072097;28;20028;-65
2023/06/20 07:13:33;;;;;;;6.00;2.38;;;;;;;37.17;11.95;99485.09;5070863;28;20513;-73
2023/06/20 07:15:59;;;;;;;4.53;1.90;;;;;;;39.57;10.30;99509.63;5072232;28;20052;-67
2023/06/20 07:18:25;;;;;;;5.88;2.40;;;;;;;41.94;8.39;99503.59;5074199;28;20059;-69
2023/06/20 07:20:50;;;;;;;5.88;2.20;;;;;;;41.51;9.10;99511.19;5075925;28;20028;-69
2023/06/20 07:23:16;;;;;;;9.95;2.55;;;;;;;39.89;9.57;99510.31;5075123;28;20336;-67
2023/06/20 07:25:41;;;;;;;6.15;2.05;;;;;;;37.68;11.14;99512.25;5075531;28;20115;-69
2023/06/20 07:28:07;;;;;;;3.08;1.90;;;;;;;35.96;12.20;99510.88;5076635;28;20029;-67
2023/06/20 07:30:32;;;;;;;3.20;1.90;;;;;;;34.58;13.82;99499.16;5074653;28;20029;-68
2023/06/20 07:32:58;;;;;;;6.78;2.20;;;;;;;33.64;14.75;99521.16;5089516;28;20036;-70
2023/06/20 07:35:23;;;;;;;2.83;2.20;;;;;;;32.46;14.98;99514.78;5092353;28;20405;-69
2023/06/20 07:37:49;;;;;;;2.22;1.90;;;;;;;31.31;16.58;99527.47;5081482;28;20056;-68
2023/06/20 07:40:14;;;;;;;6.60;2.30;;;;;;;30.66;17.68;99516.59;5073705;28;20439;-68
2023/06/20 07:42:40;;;;;;;6.68;2.08;;;;;;;30.39;17.82;99520.22;5075172;28;20028;-69
2023/06/20 07:45:06;;;;;;;12.00;2.47;;;;;;;30.30;18.02;99521.78;5074402;28;20555;-69
2023/06/20 07:47:32;;;;;;;5.63;2.40;;;;;;;30.73;17.82;99522.72;5087353;28;20111;-69
2023/06/20 07:49:57;;;;;;;5.90;1.83;;;;;;;31.42;17.37;99522.81;5094983;28;20107;-70
2023/06/20 07:52:23;;;;;;;5.97;1.90;;;;;;;31.59;16.69;99521.78;5094991;28;20036;-69
2023/06/20 07:54:48;;;;;;;4.75;2.10;;;;;;;31.71;16.88;99529.84;5078412;28;20028;-69
2023/06/20 07:57:14;;;;;;;4.95;2.10;;;;;;;31.92;16.37;99517.75;5073448;28;20064;-70
2023/06/20 07:59:39;;;;;;;6.88;2.22;;;;;;;32.50;16.50;99504.81;5074630;28;20032;-69
2023/06/20 08:02:05;;;;;;;4.35;2.38;;;;;;;35.47;14.06;99505.41;5085478;28;20533;-68
2023/06/20 08:04:30;;;;;;;5.38;2.53;;;;;;;38.64;11.50;99495.41;5076778;28;20032;-70
2023/06/20 08:06:56;;;;;;;4.65;2.60;;;;;;;39.89;10.27;99473.88;5091574;28;20036;-72
2023/06/20 08:09:21;;;;;;;3.70;2.28;;;;;;;41.76;9.28;99489.72;5070507;28;20028;-71
2023/06/20 08:11:47;;;;;;;8.77;2.50;;;;;;;42.17;8.95;99488.03;5070368;28;20063;-67
2023/06/20 08:14:13;;;;;;;7.00;2.70;;;;;;;42.49;9.00;99495.19;5074553;28;20029;-66
2023/06/20 08:16:38;;;;;;;9.02;2.50;;;;;;;40.69;9.91;99502.63;5073300;28;20289;-66
2023/06/20 08:19:05;;;;;;;9.07;2.63;;;;;;;38.01;11.30;99506.47;5078086;28;20593;-66
2023/06/20 08:21:30;;;;;;;13.32;2.75;;;;;;;37.16;12.71;99496.56;5084769;28;20115;-67
2023/06/20 08:23:56;;;;;;;5.68;2.58;;;;;;;36.94;12.21;99486.94;5094227;28;20115;-64
2023/06/20 08:26:22;;;;;;;11.98;2.60;;;;;;;36.04;13.33;99487.94;5092402;28;20032;-65
2023/06/20 08:28:47;;;;;;;5.03;2.67;;;;;;;35.12;14.29;99474.13;5070609;28;20032;-66
2023/06/20 08:31:13;;;;;;;4.70;2.03;;;;;;;34.04;14.11;99452.63;5074471;28;20370;-65
2023/06/20 08:33:38;;;;;;;6.43;2.17;;;;;;;33.12;15.20;99434.56;5087051;28;20032;-65
2023/06/20 08:36:04;;;;;;;4.57;2.42;;;;;;;32.77;15.52;99476.75;5092963;28;20032;-68
2023/06/20 08:38:30;;;;;;;6.20;2.72;;;;;;;31.96;16.43;99484.84;5092146;28;20044;-66
2023/06/20 08:40:55;;;;;;;16.08;2.88;;;;;;;30.98;17.61;99488.03;5093670;28;20426;-66
2023/06/20 08:43:21;;;;;;;6.55;2.45;;;;;;;30.33;18.26;99485.34;5093615;28;20370;-67
2023/06/20 08:45:46;;;;;;;7.38;2.50;;;;;;;29.86;18.59;99457.31;5085728;28;20105;-67
2023/06/20 08:48:12;;;;;;;5.70;2.60;;;;;;;29.77;18.87;99473.50;5073352;28;20024;-66
2023/06/20 08:50:38;;;;;;;4.88;2.25;;;;;;;29.71;18.55;99473.72;5073067;28;20427;-66
2023/06/20 08:53:09;;;;;;;4.68;2.45;;;;;;;29.79;19.27;99489.81;5073432;28;20028;-64
2023/06/20 08:55:36;;;;;;;6.22;2.58;;;;;;;29.58;19.06;99483.25;5073390;28;20060;-66
2023/06/20 08:58:06;;;;;;;5.07;2.80;;;;;;;29.39;19.54;99474.44;5071945;28;20052;-65
2023/06/20 09:00:32;;;;;;;6.35;2.75;;;;;;;29.21;20.10;99473.69;5071727;28;20090;-66
2023/06/20 09:02:57;;;;;;;3.70;2.40;;;;;;;29.03;19.79;99472.91;5072429;28;20040;-65
2023/06/20 09:05:23;;;;;;;6.05;2.80;;;;;;;28.46;20.49;99436.28;5087983;28;20450;-64
2023/06/20 09:07:51;;;;;;;7.00;2.80;;;;;;;28.56;20.58;99473.31;5093632;28;20100;-67
2023/06/20 09:10:23;;;;;;;4.75;2.40;;;;;;;28.56;20.77;99465.03;5091292;28;20395;-68
2023/06/20 09:12:48;;;;;;;7.28;2.33;;;;;;;28.59;20.72;99456.25;5090640;28;20120;-73
2023/06/20 09:15:15;;;;;;;4.75;2.95;;;;;;;28.54;20.52;99468.03;5092750;28;20118;-66
2023/06/20 09:17:43;;;;;;;7.28;2.78;;;;;;;28.54;20.79;99465.28;5073320;28;20034;-72
2023/06/20 09:20:13;;;;;;;7.78;2.60;;;;;;;28.48;20.92;99463.53;5072464;28;20052;-72
2023/06/20 09:22:39;;;;;;;4.82;2.70;;;;;;;28.16;21.04;99453.13;5073678;28;20131;-71
2023/06/20 09:25:07;;;;;;;6.45;2.47;;;;;;;28.13;21.92;99453.59;5072808;28;20033;-72
2023/06/20 09:27:36;;;;;;;7.15;2.85;;;;;;;28.32;21.67;99459.72;5072740;28;20075;-69
2023/06/20 09:30:03;;;;;;;3.05;2.50;;;;;;;28.48;21.74;99445.13;5074120;28;20075;-69
2023/06/20 09:32:39;;;;;;;6.93;2.72;;;;;;;28.62;21.25;99450.25;5077242;28;20135;-71
2023/06/20 09:35:07;;;;;;;5.38;2.60;;;;;;;28.41;21.02;99449.94;5072875;28;20064;-70
2023/06/20 09:37:51;;;;;;;5.80;2.90;;;;;;;28.23;21.27;99451.03;5072578;28;20125;-71
2023/06/20 09:40:20;;;;;;;6.07;2.97;;;;;;;27.71;22.18;99444.63;5072645;28;20397;-70
2023/06/20 09:42:47;;;;;;;5.28;2.85;;;;;;;27.46;23.12;99445.78;5072233;28;20036;-72
2023/06/20 09:45:14;;;;;;;4.72;2.60;;;;;;;27.51;22.64;99453.34;5072615;28;20451;-72
2023/06/20 09:47:42;;;;;;;4.45;2.70;;;;;;;27.74;22.69;99448.81;5087548;28;20032;-73
2023/06/20 09:50:19;;;;;;;4.95;3.03;;;;;;;27.93;22.52;99439.22;5071134;28;20763;-70
2023/06/20 09:52:58;;;;;;;6.50;2.67;;;;;;;28.34;22.16;99432.75;5072807;28;20127;-71
2023/06/20 09:55:25;;;;;;;5.95;2.40;;;;;;;28.66;21.11;99432.13;5072577;28;20082;-67
2023/06/20 09:57:54;;;;;;;8.07;2.83;;;;;;;28.57;21.43;99426.22;5073864;28;20142;-69
2023/06/20 10:00:22;;;;;;;8.25;2.40;;;;;;;28.38;21.29;99411.91;5085142;28;20032;-70
2023/06/20 10:02:48;;;;;;;5.55;2.80;;;;;;;28.29;21.83;99416.19;5089209;28;20074;-70
2023/06/20 10:05:16;;;;;;;5.53;2.55;;;;;;;28.10;21.76;99397.13;5091743;28;20133;-68
2023/06/20 10:07:43;;;;;;;6.80;3.13;;;;;;;28.25;21.11;99424.09;5074465;28;20037;-69
2023/06/20 10:10:10;;;;;;;5.78;2.40;;;;;;;28.37;21.15;99426.75;5071813;28;20038;-68
2023/06/20 10:12:38;;;;;;;5.03;2.17;;;;;;;28.46;20.96;99425.25;5072833;28;20343;-70
2023/06/20 10:15:07;;;;;;;11.70;2.90;;;;;;;28.28;21.58;99406.25;5073080;28;20033;-69
2023/06/20 10:17:43;;;;;;;18.13;2.65;;;;;;;28.28;21.63;99417.25;5071723;28;20439;-68
2023/06/20 10:20:36;;;;;;;7.97;2.70;;;;;;;27.89;22.01;99398.72;5071737;28;20499;-67
2023/06/20 10:23:08;;;;;;;3.58;2.40;;;;;;;27.81;22.20;99416.47;5080096;28;20477;-67
2023/06/20 10:25:34;;;;;;;2.90;2.60;;;;;;;27.96;22.42;99409.53;5092010;28;20016;-68
2023/06/20 10:28:09;;;;;;;10.45;3.20;;;;;;;28.22;21.87;99410.84;5089740;28;20435;-67
2023/06/20 10:30:47;;;;;;;8.80;3.20;;;;;;;28.64;21.63;99420.53;5071759;28;20048;-68
2023/06/20 10:33:13;;;;;;;7.60;3.30;;;;;;;28.65;21.47;99416.69;5071754;28;20028;-67
2023/06/20 10:35:49;;;;;;;11.02;2.83;;;;;;;28.77;20.95;99409.16;5079123;28;20028;-69
2023/06/20 10:38:15;;;;;;;4.75;2.80;;;;;;;28.74;21.17;99392.31;5077396;28;20037;-69
2023/06/20 10:40:40;;;;;;;3.75;3.00;;;;;;;29.00;20.81;99396.25;5070861;28;20051;-71
2023/06/20 10:43:08;;;;;;;3.72;2.72;;;;;;;29.34;20.35;99407.09;5071372;28;20040;-71
2023/06/20 10:45:34;;;;;;;6.95;2.67;;;;;;;29.60;20.32;99388.09;5072041;28;20047;-69
2023/06/20 10:48:03;;;;;;;3.50;2.85;;;;;;;29.98;20.15;99403.88;5071059;28;20037;-70
2023/06/20 10:50:30;;;;;;;7.32;3.60;;;;;;;30.10;19.71;99401.78;5071107;28;20477;-66
2023/06/20 10:52:58;;;;;;;7.95;3.10;;;;;;;30.16;19.53;99392.47;5074993;28;20021;-64
2023/06/20 10:55:28;;;;;;;4.97;2.92;;;;;;;30.19;20.05;99396.63;5076048;28;20490;-73
2023/06/20 10:57:55;;;;;;;8.23;3.55;;;;;;;30.13;19.86;99392.97;5074955;28;20036;-69
2023/06/20 11:00:22;;;;;;;5.75;3.08;;;;;;;30.02;20.52;99381.06;5075922;28;20037;-66
2023/06/20 11:02:56;;;;;;;4.72;2.85;;;;;;;29.81;21.10;99388.28;5075633;28;20036;-68
2023/06/20 11:05:26;;;;;;;4.97;2.90;;;;;;;29.27;20.98;99359.63;5075648;28;20451;-68
2023/06/20 11:07:54;;;;;;;7.47;3.50;;;;;;;28.81;21.85;99345.31;5075724;28;20048;-69
2023/06/20 11:10:20;;;;;;;19.25;4.07;;;;;;;28.46;22.05;99372.94;5076020;28;20024;-70
2023/06/20 11:12:47;;;;;;;29.52;3.70;;;;;;;28.08;22.59;99358.03;5075206;28;20111;-70
2023/06/20 11:15:27;;;;;;;7.90;3.67;;;;;;;28.26;22.12;99370.72;5074508;28;20028;-70
2023/06/20 11:17:54;;;;;;;5.40;3.40;;;;;;;28.22;22.78;99364.91;5075376;28;20044;-69
2023/06/20 11:20:25;;;;;;;4.45;3.00;;;;;;;28.32;22.18;99372.44;5075993;28;20116;-65
2023/06/20 11:22:55;;;;;;;4.47;3.28;;;;;;;28.22;22.72;99348.38;5075659;28;20039;-64
2023/06/20 11:25:29;;;;;;;8.02;3.58;;;;;;;28.49;22.50;99368.84;5075790;28;20462;-65
2023/06/20 11:28:23;;;;;;;6.80;3.55;;;;;;;28.53;22.04;99358.16;5074933;28;20032;-66
2023/06/20 11:30:50;;;;;;;6.80;3.30;;;;;;;28.40;22.27;99364.88;5075560;28;20048;-64
2023/06/20 11:33:18;;;;;;;3.63;3.33;;;;;;;28.10;22.54;99366.03;5074077;28;20032;-65
2023/06/20 11:35:52;;;;;;;4.90;3.30;;;;;;;28.05;22.63;99356.59;5074988;28;20037;-65